Terminal Aerodrome Forecast
Issued by NWS Twin Cities, MN

Home | Current Version | Previous Version | Graphics & Text | Print | Product List | Glossary On
Versions: 1 2 3 4 5 6 7 8 9 10 11 12 13 14 15 16
000
FTUS43 KMPX 240234 AAA
TAFEAU
TAF AMD
KEAU 240234Z 2403/2424 22006KT P6SM VCSH SCT040 BKN100
     FM240600 19009KT 6SM -SHRA BR SCT015 OVC040
     FM240800 20005KT 4SM BR OVC005
      TEMPO 2409/2411 3/4SM BR OVC002
     FM241400 26004KT 6SM HZ BKN012=

USA.gov is the U.S. government's official web portal to all federal, state and local government web resources and services.